createdAt,value
2022-11-28T00:04:52.160Z,20.20
2022-11-28T00:09:53.921Z,20.75
2022-11-28T00:14:55.407Z,19.45
2022-11-28T00:19:56.870Z,19.70
2022-11-28T00:24:58.309Z,19.00
2022-11-28T00:29:59.730Z,19.75
2022-11-28T00:35:01.179Z,23.20
2022-11-28T00:40:10.063Z,21.70
2022-11-28T00:45:11.503Z,22.27
2022-11-28T00:50:12.987Z,20.17
2022-11-28T00:55:14.663Z,24.15
2022-11-28T01:00:16.354Z,22.60
2022-11-28T01:05:17.790Z,24.02
2022-11-28T01:10:19.205Z,23.38
2022-11-28T01:15:20.685Z,25.20
2022-11-28T01:20:22.255Z,25.10
2022-11-28T01:25:23.812Z,22.70
2022-11-28T01:30:25.500Z,21.73
2022-11-28T01:35:26.921Z,22.60
2022-11-28T01:40:28.360Z,22.65
2022-11-28T01:45:30.968Z,23.13
2022-11-28T01:50:33.247Z,21.52
2022-11-28T01:55:37.790Z,22.48
2022-11-28T02:00:39.294Z,22.00
2022-11-28T02:05:40.852Z,24.15
2022-11-28T02:10:42.229Z,23.40
2022-11-28T02:16:02.588Z,23.40
2022-11-28T02:21:04.028Z,21.80
2022-11-28T02:26:20.537Z,23.10
2022-11-28T02:31:24.652Z,22.00
2022-11-28T02:36:31.820Z,22.15
2022-11-28T02:41:46.491Z,22.67
2022-11-28T02:46:58.824Z,22.95
2022-11-28T02:52:02.412Z,19.25
2022-11-28T02:57:22.565Z,19.55
2022-11-28T03:02:30.338Z,19.25
2022-11-28T03:12:59.055Z,24.13
2022-11-28T03:18:00.452Z,22.88
2022-11-28T03:23:24.242Z,22.13
2022-11-28T03:28:25.678Z,25.20
2022-11-28T03:33:28.922Z,23.95
2022-11-28T03:38:41.735Z,24.20
2022-11-28T03:43:46.648Z,24.52
2022-11-28T03:48:50.833Z,23.77
2022-11-28T03:54:06.434Z,22.48
2022-11-28T03:59:19.635Z,24.27
2022-11-28T04:04:26.944Z,24.15
2022-11-28T04:09:35.172Z,21.65
2022-11-28T04:14:57.471Z,22.05
2022-11-28T04:20:05.427Z,20.23
2022-11-28T04:25:25.482Z,21.80
2022-11-28T04:30:27.024Z,21.95
2022-11-28T04:35:33.439Z,19.63
2022-11-28T04:40:37.763Z,20.15
2022-11-28T04:45:43.625Z,18.88
2022-11-28T04:50:59.767Z,21.00
2022-11-28T04:56:11.703Z,21.73
2022-11-28T05:01:16.231Z,23.80
2022-11-28T05:06:28.433Z,23.42
2022-11-28T05:11:29.816Z,21.80
2022-11-28T05:16:31.268Z,22.17
2022-11-28T05:21:32.686Z,29.63
2022-11-28T05:26:35.435Z,29.80
2022-11-28T05:31:37.515Z,24.55
2022-11-28T05:36:39.027Z,26.55
2022-11-28T05:41:40.463Z,28.95
2022-11-28T05:46:41.870Z,29.25
2022-11-28T05:51:43.275Z,29.42
2022-11-28T05:56:44.720Z,30.38
2022-11-28T06:01:46.188Z,31.80
2022-11-28T06:06:49.442Z,29.05
2022-11-28T06:11:50.808Z,34.38
2022-11-28T06:16:52.249Z,29.80
2022-11-28T06:21:53.673Z,33.05
2022-11-28T06:26:55.321Z,34.05
2022-11-28T06:31:56.837Z,35.25
2022-11-28T06:36:58.445Z,37.80
2022-11-28T06:41:59.805Z,33.45
2022-11-28T06:47:01.204Z,34.25
2022-11-28T06:52:02.780Z,36.28
2022-11-28T06:57:04.159Z,33.60
2022-11-28T07:02:07.960Z,35.15
2022-11-28T07:07:13.669Z,34.90
2022-11-28T07:12:17.931Z,39.80
2022-11-28T07:17:19.309Z,35.25
2022-11-28T07:22:20.727Z,33.53
2022-11-28T07:27:22.460Z,33.00
2022-11-28T07:32:23.868Z,31.75
2022-11-28T07:37:25.638Z,29.38
2022-11-28T07:42:27.446Z,28.98
2022-11-28T07:47:29.020Z,28.63
2022-11-28T07:52:30.556Z,28.23
2022-11-28T07:57:31.987Z,30.00
2022-11-28T08:02:33.475Z,30.15
2022-11-28T08:07:35.056Z,32.88
2022-11-28T08:12:36.496Z,29.95
2022-11-28T08:17:37.968Z,29.73
2022-11-28T08:22:39.423Z,34.08
2022-11-28T08:27:40.861Z,31.50
2022-11-28T08:32:42.311Z,36.10
2022-11-28T08:37:43.774Z,34.47
2022-11-28T08:42:45.231Z,35.53
2022-11-28T08:47:46.613Z,40.28
2022-11-28T08:52:48.040Z,39.20
2022-11-28T08:58:08.038Z,41.03
2022-11-28T09:03:16.315Z,40.63
2022-11-28T09:08:20.070Z,42.55
2022-11-28T09:13:22.058Z,44.60
2022-11-28T09:18:23.512Z,42.70
2022-11-28T09:23:24.949Z,43.53
2022-11-28T09:28:28.801Z,43.85
2022-11-28T09:33:30.319Z,50.38
2022-11-28T09:38:31.822Z,45.85
2022-11-28T09:43:35.778Z,48.28
2022-11-28T09:48:40.026Z,48.38
2022-11-28T09:54:04.575Z,52.25
2022-11-28T09:59:19.509Z,52.45
2022-11-28T10:04:27.088Z,50.85
2022-11-28T10:09:34.492Z,49.47
2022-11-28T10:14:38.639Z,45.92
2022-11-28T10:19:54.318Z,48.00
2022-11-28T10:24:57.874Z,49.50
2022-11-28T10:35:28.718Z,51.53
2022-11-28T10:40:39.402Z,54.90
2022-11-28T10:46:01.153Z,57.33
2022-11-28T10:51:17.773Z,60.33
2022-11-28T10:56:22.020Z,64.20
2022-11-28T11:01:24.288Z,58.80
2022-11-28T11:06:36.081Z,66.90
2022-11-28T11:11:49.265Z,61.35
2022-11-28T11:16:59.323Z,63.35
2022-11-28T11:22:02.290Z,57.75
2022-11-28T11:27:14.724Z,67.13
2022-11-28T11:32:21.806Z,66.18
2022-11-28T11:37:43.774Z,58.78
2022-11-28T11:42:51.657Z,65.43
2022-11-28T11:47:53.186Z,63.33
2022-11-28T11:53:14.906Z,66.25
2022-11-28T11:58:19.073Z,61.58
2022-11-28T12:03:25.408Z,61.92
2022-11-28T12:08:33.678Z,61.42
2022-11-28T12:13:35.111Z,61.05
2022-11-28T12:18:48.270Z,70.00
2022-11-28T12:23:56.525Z,71.78
2022-11-28T12:29:10.741Z,76.38
2022-11-28T12:34:13.558Z,75.68
2022-11-28T12:39:20.876Z,73.50
2022-11-28T12:44:22.295Z,74.53
2022-11-28T12:49:44.269Z,78.53
2022-11-28T12:54:54.880Z,84.38
2022-11-28T13:00:08.633Z,83.53
2022-11-28T13:05:10.716Z,79.75
2022-11-28T13:10:31.619Z,87.25
2022-11-28T13:15:42.115Z,86.75
2022-11-28T13:20:50.575Z,82.80
2022-11-28T13:25:55.527Z,81.05
2022-11-28T13:31:02.589Z,85.82
2022-11-28T13:36:05.525Z,77.28
2022-11-28T13:41:28.769Z,76.82
2022-11-28T13:46:33.650Z,73.85
2022-11-28T13:51:35.233Z,75.75
2022-11-28T13:56:36.658Z,80.38
2022-11-28T14:01:45.299Z,78.60
2022-11-28T14:06:46.705Z,73.57
2022-11-28T14:11:51.457Z,71.63
2022-11-28T14:17:05.030Z,75.72
2022-11-28T14:22:09.353Z,74.15
2022-11-28T14:27:19.381Z,69.85
2022-11-28T14:32:31.152Z,66.03
2022-11-28T14:37:34.729Z,68.88
2022-11-28T14:42:59.428Z,76.00
2022-11-28T14:48:14.478Z,68.97
2022-11-28T14:53:37.331Z,73.93
2022-11-28T14:58:38.878Z,75.80
2022-11-28T15:03:50.723Z,66.78
2022-11-28T15:09:00.998Z,70.70
2022-11-28T15:14:21.086Z,69.15
2022-11-28T15:19:24.967Z,69.47
2022-11-28T15:24:36.544Z,71.03
2022-11-28T15:29:38.374Z,66.72
2022-11-28T15:34:40.739Z,65.18
2022-11-28T15:39:42.857Z,62.47
2022-11-28T15:44:44.807Z,47.33
2022-11-28T15:49:46.741Z,49.13
2022-11-28T15:54:51.503Z,46.45
2022-11-28T15:59:53.243Z,49.20
2022-11-28T16:05:05.533Z,50.10
2022-11-28T16:10:08.063Z,51.72
2022-11-28T16:15:16.747Z,60.40
2022-11-28T16:20:28.241Z,54.50
2022-11-28T16:25:30.548Z,42.95
2022-11-28T16:30:37.072Z,40.13
2022-11-28T16:35:41.657Z,40.55
2022-11-28T16:40:43.595Z,44.17
2022-11-28T16:45:45.705Z,45.53
2022-11-28T16:51:13.362Z,44.45
2022-11-28T16:56:29.906Z,42.95
2022-11-28T17:01:31.391Z,41.47
2022-11-28T17:06:34.415Z,39.03
2022-11-28T17:11:37.105Z,39.13
2022-11-28T17:16:39.264Z,40.70
2022-11-28T17:21:42.593Z,37.60
2022-11-28T17:26:44.416Z,40.35
2022-11-28T17:31:47.560Z,38.65
2022-11-28T17:36:49.295Z,47.42
2022-11-28T17:41:50.801Z,40.80
2022-11-28T17:46:53.187Z,39.03
2022-11-28T17:51:55.533Z,36.10
2022-11-28T17:56:57.920Z,38.67
2022-11-28T18:01:59.353Z,44.63
2022-11-28T18:07:01.712Z,49.95
2022-11-28T18:12:03.209Z,48.55
2022-11-28T18:17:04.637Z,48.33
2022-11-28T18:22:08.550Z,42.72
2022-11-28T18:27:09.952Z,41.38
2022-11-28T18:32:11.779Z,34.90
2022-11-28T18:37:13.292Z,34.50
2022-11-28T18:42:14.695Z,35.40
2022-11-28T18:47:16.764Z,32.95
2022-11-28T18:52:18.215Z,30.67
2022-11-28T18:57:19.626Z,35.50
2022-11-28T19:02:21.233Z,31.55
2022-11-28T19:07:23.045Z,33.80
2022-11-28T19:12:24.425Z,32.95
2022-11-28T19:17:25.943Z,33.60
2022-11-28T19:22:27.386Z,29.65
2022-11-28T19:27:28.807Z,29.30
2022-11-28T19:32:30.292Z,32.35
2022-11-28T19:37:31.835Z,31.60
2022-11-28T19:42:33.250Z,30.40
2022-11-28T19:47:34.699Z,33.08
2022-11-28T19:52:36.169Z,35.60
2022-11-28T19:57:38.040Z,30.67
2022-11-28T20:02:39.487Z,32.28
2022-11-28T20:07:41.100Z,34.47
2022-11-28T20:12:42.618Z,38.88
2022-11-28T20:17:44.925Z,34.00
2022-11-28T20:22:46.328Z,31.77
2022-11-28T20:27:47.721Z,39.50
2022-11-28T20:32:49.101Z,32.78
2022-11-28T20:37:50.591Z,35.80
2022-11-28T20:42:52.285Z,33.72
2022-11-28T20:47:53.715Z,35.53
2022-11-28T20:52:55.159Z,35.03
2022-11-28T20:57:56.608Z,34.95
2022-11-28T21:02:58.023Z,38.22
2022-11-28T21:07:59.481Z,39.92
2022-11-28T21:13:00.972Z,39.03
2022-11-28T21:18:03.738Z,37.17
2022-11-28T21:23:05.090Z,39.38
2022-11-28T21:28:06.506Z,44.53
2022-11-28T21:33:08.034Z,42.75
2022-11-28T21:38:09.548Z,40.75
2022-11-28T21:43:10.894Z,37.45
2022-11-28T21:48:12.319Z,36.33
2022-11-28T21:53:16.215Z,41.45
2022-11-28T21:58:22.389Z,39.45
2022-11-28T22:03:27.253Z,39.33
2022-11-28T22:08:29.353Z,38.00
2022-11-28T22:13:31.345Z,40.15
2022-11-28T22:18:32.732Z,38.45
2022-11-28T22:23:34.989Z,38.92
2022-11-28T22:28:37.259Z,39.67
2022-11-28T22:33:38.686Z,38.13
2022-11-28T22:38:40.869Z,35.47
2022-11-28T22:43:42.458Z,35.50
2022-11-28T22:48:44.078Z,35.25
2022-11-28T22:53:45.533Z,34.72
2022-11-28T22:58:47.353Z,43.22
2022-11-28T23:03:48.982Z,40.22
2022-11-28T23:08:50.631Z,45.92
2022-11-28T23:13:52.394Z,42.67
2022-11-28T23:18:54.844Z,44.67
2022-11-28T23:23:56.303Z,51.10
2022-11-28T23:29:01.924Z,45.95
2022-11-28T23:34:03.949Z,54.83
2022-11-28T23:39:06.692Z,58.22
2022-11-28T23:44:09.979Z,57.58
2022-11-28T23:49:12.148Z,74.20
2022-11-28T23:54:13.887Z,69.10
2022-11-28T23:59:15.316Z,79.50
